Arjay, Kentucky
Current Conditions -  °F | °C
As of 8:15 PM on Wednesday 26 Nov 2014 (Local Time) from KI35 Reporting Station
Broken Clouds Broken Clouds  
Wind Chill: 39°   Ceiling: 10000
Heat Index: 39°   Visibility: 10mi
Dew Point: 27°   Wind: 0mph
Humidity: 61%   Direction: NA
Pressure: 29.98"   Gusts: NA
Location:  36.8°N, 83.65°W
Report Text: KI35 270115Z AUTO 00000KT 10SM BKN100 BKN120 04/M03 A2998 RMK AO1
Loading
Personal Weather Stations






























Interactive Weather Map New forecast layout! Learn more

10-Day Weather Forecast

Advertisements
Track Severe Weather on mobile